Terminal Aerodrome Forecast
Issued by NWS Charleston, WV

Current Version | Previous Version | Text Only | Print | Product List | Glossary Off
Versions: 1 2 3 4 5 6 7 8 9 10 11 12 13 14 15 16 17 18 19 20 21 22

680
FTUS41 KRLX 201753
TAFEKN
TAF
KEKN 201753Z 2018/2118 28005KT P6SM SCT100
     FM202000 25004KT P6SM BKN090
     FM210100 20005KT 6SM -SHRA OVC035
     FM210300 20004KT 3SM SHRA OVC010
     FM210600 VRB03KT 2SM -SHRA OVC007
     FM210900 VRB03KT 2SM -SHRA OVC002
     FM211500 30003KT 3SM -SHRA OVC006=

USA.gov is the U.S. government's official web portal to all federal, state and local government web resources and services.